Time;durP1;ratioP1;P1;durP2;ratioP2;P2;SDS_P1;SDS_P2;PMS_P1;PMS_P2;Temp;Humidity;BMP_temperature;BMP_pressure;BME280_temperature;BME280_humidity;BME280_pressure;Samples;Min_cycle;Max_cycle;Signal;HPM_P1;HPM_P2
2022/02/16 00:00:19;;;;;;;;;;;333.10;1536.00;;;;;;5117932;28;19931;-64
2022/02/16 00:02:48;;;;;;;;;;;333.10;1536.00;;;;;;5117381;28;19966;-62
2022/02/16 00:05:18;;;;;;;;;;;333.00;1561.60;;;;;;5117554;28;19911;-65
2022/02/16 00:07:47;;;;;;;;;;;332.90;1561.60;;;;;;5117637;28;19908;-64
2022/02/16 00:10:17;;;;;;;;;;;332.90;1561.60;;;;;;5117880;28;19904;-60
2022/02/16 00:12:47;;;;;;;;;;;332.90;1561.60;;;;;;5117625;28;20246;-63
2022/02/16 00:15:16;;;;;;;;;;;332.90;1587.20;;;;;;5117468;28;19904;-60
2022/02/16 00:17:42;;;;;;;;;;;332.80;1587.20;;;;;;5117708;28;19904;-60
2022/02/16 00:20:11;;;;;;;;;;;332.80;1587.20;;;;;;5117395;28;19908;-64
2022/02/16 00:22:40;;;;;;;;;;;332.80;1587.20;;;;;;5117339;28;19904;-62
2022/02/16 00:25:08;;;;;;;;;;;332.80;1587.20;;;;;;5117229;28;20293;-60
2022/02/16 00:27:37;;;;;;;;;;;332.80;1587.20;;;;;;5117077;28;19943;-60
2022/02/16 00:30:07;;;;;;;;;;;332.80;1587.20;;;;;;5117048;28;19904;-63
2022/02/16 00:32:39;;;;;;;;;;;332.80;1612.80;;;;;;5117003;28;19951;-61
2022/02/16 00:35:05;;;;;;;;;;;332.80;1612.80;;;;;;5117174;28;19912;-64
2022/02/16 00:37:34;;;;;;;;;;;332.80;1612.80;;;;;;5117172;28;19926;-64
2022/02/16 00:40:03;;;;;;;;;;;332.80;1612.80;;;;;;5116049;28;20021;-60
2022/02/16 00:42:32;;;;;;;;;;;332.80;1612.80;;;;;;5116738;28;19904;-60
2022/02/16 00:45:00;;;;;;;;;;;332.90;1587.20;;;;;;5117217;28;19956;-64
2022/02/16 00:47:29;;;;;;;;;;;332.90;1587.20;;;;;;5117006;28;19908;-60
2022/02/16 00:49:58;;;;;;;;;;;333.00;1612.80;;;;;;5116875;28;20033;-63
2022/02/16 00:52:24;;;;;;;;;;;308.10;1587.20;;;;;;5116859;28;19911;-64
2022/02/16 00:54:53;;;;;;;;;;;332.80;1612.80;;;;;;5117128;28;19904;-59
2022/02/16 00:57:21;;;;;;;;;;;308.10;1587.20;;;;;;5116992;28;19903;-65
2022/02/16 00:59:47;;;;;;;;;;;332.80;1612.80;;;;;;5116939;28;19926;-64
2022/02/16 01:02:15;;;;;;;;;;;332.80;1612.80;;;;;;5116506;28;20346;-60
2022/02/16 01:04:44;;;;;;;;;;;332.80;1612.80;;;;;;5116472;28;19904;-65
2022/02/16 01:07:09;;;;;;;;;;;332.80;1612.80;;;;;;5116507;28;19911;-59
2022/02/16 01:09:38;;;;;;;;;;;332.80;1612.80;;;;;;5116369;28;19911;-64
2022/02/16 01:12:07;;;;;;;;;;;332.80;1638.40;;;;;;5116578;28;20320;-60
2022/02/16 01:14:33;;;;;;;;;;;332.90;1612.80;;;;;;5116405;28;19942;-66
2022/02/16 01:17:02;;;;;;;;;;;333.00;1612.80;;;;;;5116401;28;19904;-65
2022/02/16 01:19:30;;;;;;;;;;;333.00;1612.80;;;;;;5116304;28;19903;-62
2022/02/16 01:21:59;;;;;;;;;;;333.10;1612.80;;;;;;5116226;28;19977;-64
2022/02/16 01:24:27;;;;;;;;;;;333.10;1612.80;;;;;;5116401;28;19903;-65
2022/02/16 01:26:56;;;;;;;;;;;333.10;1587.20;;;;;;5116213;28;19943;-60
2022/02/16 01:29:24;;;;;;;;;;;333.30;1612.80;;;;;;5116114;28;20345;-65
2022/02/16 01:31:53;;;;;;;;;;;333.30;1612.80;;;;;;5115874;28;20366;-60
2022/02/16 01:34:21;;;;;;;;;;;333.30;1638.40;;;;;;5116092;28;19986;-59
2022/02/16 01:36:49;;;;;;;;;;;333.30;1638.40;;;;;;5116052;28;19908;-61
2022/02/16 01:39:17;;;;;;;;;;;333.30;1612.80;;;;;;5115951;28;19904;-64
2022/02/16 01:41:46;;;;;;;;;;;333.30;1612.80;;;;;;5115935;28;19985;-61
2022/02/16 01:44:18;;;;;;;;;;;333.30;1638.40;;;;;;5115859;28;19907;-64
2022/02/16 01:46:52;;;;;;;;;;;333.30;1638.40;;;;;;5115848;28;19903;-60
2022/02/16 01:49:21;;;;;;;;;;;333.30;1638.40;;;;;;5115774;28;20036;-65
2022/02/16 01:51:49;;;;;;;;;;;333.30;1664.00;;;;;;5114561;28;19907;-61
2022/02/16 01:54:18;;;;;;;;;;;333.30;1664.00;;;;;;5115659;28;20348;-66
2022/02/16 01:56:47;;;;;;;;;;;333.30;1638.40;;;;;;5115501;28;20372;-60
2022/02/16 01:59:22;;;;;;;;;;;333.30;1664.00;;;;;;5115704;28;19949;-60
2022/02/16 02:01:51;;;;;;;;;;;333.30;1689.60;;;;;;5115519;28;19996;-64
2022/02/16 02:04:20;;;;;;;;;;;333.20;1664.00;;;;;;5115467;28;19910;-63
2022/02/16 02:06:48;;;;;;;;;;;333.10;1689.60;;;;;;5115318;28;19908;-65
2022/02/16 02:09:17;;;;;;;;;;;333.10;1715.20;;;;;;5115231;28;20361;-60
2022/02/16 02:11:45;;;;;;;;;;;333.10;1689.60;;;;;;5115315;28;19903;-64
2022/02/16 02:14:13;;;;;;;;;;;333.10;1715.20;;;;;;5115367;28;19918;-61
2022/02/16 02:16:42;;;;;;;;;;;333.00;1715.20;;;;;;5115150;28;19911;-60
2022/02/16 02:19:11;;;;;;;;;;;333.00;1740.80;;;;;;5114714;28;19949;-61
2022/02/16 02:21:36;;;;;;;;;;;333.00;1740.80;;;;;;5114948;28;19980;-61
2022/02/16 02:24:05;;;;;;;;;;;333.00;1740.80;;;;;;5115139;28;19935;-61
2022/02/16 02:26:34;;;;;;;;;;;333.00;1740.80;;;;;;5096356;28;19910;-60
2022/02/16 02:29:02;;;;;;;;;;;333.00;1740.80;;;;;;5114998;28;19935;-62
2022/02/16 02:31:33;;;;;;;;;;;333.00;1766.40;;;;;;5115093;28;19968;-61
2022/02/16 02:34:02;;;;;;;;;;;333.00;1766.40;;;;;;5114907;28;19919;-65
2022/02/16 02:36:30;;;;;;;;;;;333.00;1740.80;;;;;;5114953;28;19935;-63
2022/02/16 02:38:56;;;;;;;;;;;333.00;1740.80;;;;;;5114795;28;19914;-64
2022/02/16 02:41:25;;;;;;;;;;;333.00;1766.40;;;;;;5114404;28;20395;-64
2022/02/16 02:43:53;;;;;;;;;;;333.00;1766.40;;;;;;5114522;28;19949;-60
2022/02/16 02:46:19;;;;;;;;;;;333.10;1766.40;;;;;;5114794;28;19946;-65
2022/02/16 02:48:47;;;;;;;;;;;333.00;1766.40;;;;;;5114869;28;19972;-65
2022/02/16 02:51:16;;;;;;;;;;;333.10;1766.40;;;;;;5114761;28;19956;-65
2022/02/16 02:53:45;;;;;;;;;;;333.10;1766.40;;;;;;5114446;28;19937;-61
2022/02/16 02:56:14;;;;;;;;;;;333.00;1766.40;;;;;;5114569;28;19904;-66
2022/02/16 02:58:42;;;;;;;;;;;333.00;1766.40;;;;;;5114555;28;19925;-65
2022/02/16 03:01:11;;;;;;;;;;;333.00;1792.00;;;;;;5114600;28;19904;-63
2022/02/16 03:03:39;;;;;;;;;;;333.00;1792.00;;;;;;5114136;28;19999;-65
2022/02/16 03:06:09;;;;;;;;;;;333.00;1766.40;;;;;;5114596;28;19908;-65
2022/02/16 03:08:38;;;;;;;;;;;332.90;1766.40;;;;;;5114544;28;19903;-61
2022/02/16 03:11:06;;;;;;;;;;;332.90;1792.00;;;;;;5114364;28;20333;-64
2022/02/16 03:13:35;;;;;;;;;;;332.80;1766.40;;;;;;5114138;28;20006;-65
2022/02/16 03:16:03;;;;;;;;;;;332.80;1792.00;;;;;;5114398;28;20302;-65
2022/02/16 03:18:32;;;;;;;;;;;332.80;1792.00;;;;;;5114463;28;20045;-64
2022/02/16 03:21:00;;;;;;;;;;;332.80;1792.00;;;;;;5114364;28;19941;-61
2022/02/16 03:23:29;;;;;;;;;;;332.80;1792.00;;;;;;5114204;28;19907;-64
2022/02/16 03:25:58;;;;;;;;;;;332.80;1817.60;;;;;;5114293;28;19998;-61
2022/02/16 03:28:23;;;;;;;;;;;332.80;1817.60;;;;;;5114426;28;19910;-61
2022/02/16 03:30:52;;;;;;;;;;;308.10;1792.00;;;;;;5114147;28;19904;-60
2022/02/16 03:33:20;;;;;;;;;;;308.10;1792.00;;;;;;5113977;28;19916;-64
2022/02/16 03:35:49;;;;;;;;;;;308.10;1792.00;;;;;;5114105;28;19908;-63
2022/02/16 03:38:17;;;;;;;;;;;308.10;1792.00;;;;;;5114969;28;19949;-60
2022/02/16 03:40:46;;;;;;;;;;;308.00;1792.00;;;;;;5114206;28;19911;-61
2022/02/16 03:43:15;;;;;;;;;;;308.10;1792.00;;;;;;5114282;28;19911;-63
2022/02/16 03:45:43;;;;;;;;;;;308.00;1792.00;;;;;;5114405;28;20273;-60
2022/02/16 03:48:11;;;;;;;;;;;308.00;1792.00;;;;;;5114388;28;19911;-61
2022/02/16 03:50:40;;;;;;;;;;;308.00;1792.00;;;;;;5113975;28;19995;-64
2022/02/16 03:53:06;;;;;;;;;;;308.00;1792.00;;;;;;5113326;28;19915;-61
2022/02/16 03:55:34;;;;;;;;;;;308.00;1792.00;;;;;;5114045;28;19904;-62
2022/02/16 03:58:03;;;;;;;;;;;307.80;1766.40;;;;;;5113896;28;19935;-64
2022/02/16 04:00:28;;;;;;;;;;;307.80;1766.40;;;;;;5114172;28;20293;-61
2022/02/16 04:02:57;;;;;;;;;;;307.80;1766.40;;;;;;5113952;28;19911;-61
2022/02/16 04:05:26;;;;;;;;;;;307.70;1766.40;;;;;;5113885;28;19955;-61
2022/02/16 04:07:51;;;;;;;;;;;307.80;1766.40;;;;;;5113964;28;19903;-61
2022/02/16 04:10:19;;;;;;;;;;;307.70;1792.00;;;;;;5114202;28;20049;-64
2022/02/16 04:12:47;;;;;;;;;;;307.60;1792.00;;;;;;5113702;28;19911;-63
2022/02/16 04:15:15;;;;;;;;;;;307.50;1817.60;;;;;;5116229;28;19903;-64
2022/02/16 04:17:43;;;;;;;;;;;307.60;1817.60;;;;;;5117433;28;19972;-63
2022/02/16 04:20:12;;;;;;;;;;;307.60;1843.20;;;;;;5117490;28;19911;-64
2022/02/16 04:22:47;;;;;;;;;;;307.50;1843.20;;;;;;5117455;28;20328;-60
2022/02/16 04:25:13;;;;;;;;;;;307.60;1843.20;;;;;;5117243;28;20349;-64
2022/02/16 04:27:42;;;;;;;;;;;307.50;1843.20;;;;;;5117305;28;20007;-63
2022/02/16 04:30:10;;;;;;;;;;;307.60;1817.60;;;;;;5117544;28;19903;-61
2022/02/16 04:32:37;;;;;;;;;;;307.60;1817.60;;;;;;5116954;28;19920;-60
2022/02/16 04:35:06;;;;;;;;;;;307.70;1817.60;;;;;;5117263;28;19957;-61
2022/02/16 04:37:35;;;;;;;;;;;307.60;1843.20;;;;;;5116607;28;20265;-63
2022/02/16 04:40:04;;;;;;;;;;;307.60;1843.20;;;;;;5117002;28;19904;-61
2022/02/16 04:42:33;;;;;;;;;;;307.70;1817.60;;;;;;5117021;28;19907;-61
2022/02/16 04:45:02;;;;;;;;;;;307.60;1817.60;;;;;;5116955;28;19903;-63
2022/02/16 04:47:28;;;;;;;;;;;307.70;1817.60;;;;;;5117150;28;19903;-64
2022/02/16 04:49:57;;;;;;;;;;;307.60;1817.60;;;;;;5116921;28;20306;-65
2022/02/16 04:52:37;;;;;;;;;;;307.60;1817.60;;;;;;5116956;28;19912;-64
2022/02/16 04:55:12;;;;;;;;;;;307.70;1817.60;;;;;;5116859;28;19928;-64
2022/02/16 04:57:41;;;;;;;;;;;307.70;1843.20;;;;;;5116910;28;19904;-64
2022/02/16 05:00:09;;;;;;;;;;;307.60;1817.60;;;;;;5116835;28;20002;-65
2022/02/16 05:02:38;;;;;;;;;;;307.60;1817.60;;;;;;5116474;28;19910;-61
2022/02/16 05:05:07;;;;;;;;;;;307.60;1817.60;;;;;;5116634;28;20357;-61
2022/02/16 05:07:36;;;;;;;;;;;307.70;1792.00;;;;;;5116436;28;20365;-62
2022/02/16 05:10:05;;;;;;;;;;;307.60;1817.60;;;;;;5116598;28;20375;-65
2022/02/16 05:12:35;;;;;;;;;;;307.50;1792.00;;;;;;5116615;28;19911;-64
2022/02/16 05:15:06;;;;;;;;;;;307.40;1817.60;;;;;;5116179;28;19904;-65
2022/02/16 05:17:32;;;;;;;;;;;307.40;1817.60;;;;;;5115838;28;19911;-64
2022/02/16 05:20:01;;;;;;;;;;;307.30;1817.60;;;;;;5116204;28;19904;-65
2022/02/16 05:22:29;;;;;;;;;;;307.30;1843.20;;;;;;5116447;28;19958;-61
2022/02/16 05:24:55;;;;;;;;;;;307.40;1843.20;;;;;;5116161;28;19908;-66
2022/02/16 05:27:23;;;;;;;;;;;307.30;1817.60;;;;;;5116121;28;20056;-61
2022/02/16 05:29:52;;;;;;;;;;;307.30;1817.60;;;;;;5116197;28;19908;-61
2022/02/16 05:32:21;;;;;;;;;;;307.30;1843.20;;;;;;5116070;28;19972;-60
2022/02/16 05:34:49;;;;;;;;;;;307.40;1843.20;;;;;;5116077;28;19908;-61
2022/02/16 05:37:18;;;;;;;;;;;307.40;1817.60;;;;;;5116151;28;19904;-66
2022/02/16 05:39:46;;;;;;;;;;;307.40;1817.60;;;;;;5115908;28;19907;-61
2022/02/16 05:42:15;;;;;;;;;;;307.40;1843.20;;;;;;5115911;28;19911;-65
2022/02/16 05:44:43;;;;;;;;;;;307.40;1843.20;;;;;;5115898;28;20265;-61
2022/02/16 05:47:12;;;;;;;;;;;307.40;1843.20;;;;;;5115877;28;19911;-61
2022/02/16 05:49:41;;;;;;;;;;;307.40;1843.20;;;;;;5115528;28;19907;-65
2022/02/16 05:52:09;;;;;;;;;;;307.40;1817.60;;;;;;5115708;28;19907;-65
2022/02/16 05:54:38;;;;;;;;;;;307.40;1843.20;;;;;;5115741;28;19925;-66
2022/02/16 05:57:07;;;;;;;;;;;307.40;1843.20;;;;;;5115643;28;19964;-62
2022/02/16 05:59:35;;;;;;;;;;;307.40;1843.20;;;;;;5115672;28;19904;-64
2022/02/16 06:02:04;;;;;;;;;;;307.40;1843.20;;;;;;5115819;28;19957;-66
2022/02/16 06:04:33;;;;;;;;;;;307.40;1843.20;;;;;;5115985;28;19908;-61
2022/02/16 06:07:00;;;;;;;;;;;307.40;1817.60;;;;;;5115542;28;19904;-61
2022/02/16 06:09:28;;;;;;;;;;;307.40;1843.20;;;;;;5115335;28;19994;-62
2022/02/16 06:11:57;;;;;;;;;;;307.40;1817.60;;;;;;5114847;28;19937;-64
2022/02/16 06:14:25;;;;;;;;;;;307.40;1817.60;;;;;;5115541;28;19937;-63
2022/02/16 06:16:53;;;;;;;;;;;307.40;1817.60;;;;;;5115129;28;19904;-61
2022/02/16 06:19:22;;;;;;;;;;;307.40;1817.60;;;;;;5115331;28;19965;-60
2022/02/16 06:21:51;;;;;;;;;;;307.40;1817.60;;;;;;5115136;28;20334;-64
2022/02/16 06:24:20;;;;;;;;;;;307.40;1817.60;;;;;;5115114;28;19968;-62
2022/02/16 06:26:48;;;;;;;;;;;307.40;1817.60;;;;;;5114929;28;20281;-61
2022/02/16 06:29:17;;;;;;;;;;;307.40;1792.00;;;;;;5114976;28;19904;-67
2022/02/16 06:31:43;;;;;;;;;;;307.40;1792.00;;;;;;5114633;28;19915;-63
2022/02/16 06:34:09;;;;;;;;;;;307.30;1792.00;;;;;;5114585;28;19912;-61
2022/02/16 06:36:37;;;;;;;;;;;307.30;1792.00;;;;;;5114266;28;19904;-59
2022/02/16 06:39:02;;;;;;;;;;;307.20;1817.60;;;;;;5114436;28;19904;-60
2022/02/16 06:41:29;;;;;;;;;;;307.20;1817.60;;;;;;5114934;28;20249;-63
2022/02/16 06:43:54;;;;;;;;;;;307.20;1792.00;;;;;;5114552;28;19930;-66
2022/02/16 06:46:22;;;;;;;;;;;307.20;1817.60;;;;;;5114874;28;19905;-62
2022/02/16 06:48:51;;;;;;;;;;;307.20;1817.60;;;;;;5114574;28;19904;-66
2022/02/16 06:51:17;;;;;;;;;;;282.50;1766.40;;;;;;5114392;28;20414;-62
2022/02/16 06:53:43;;;;;;;;;;;282.50;1792.00;;;;;;5114439;28;19916;-63
2022/02/16 06:56:09;;;;;;;;;;;282.50;1792.00;;;;;;5102634;28;19939;-64
2022/02/16 06:58:34;;;;;;;;;;;282.50;1792.00;;;;;;5096715;28;19908;-63
2022/02/16 07:01:00;;;;;;;;;;;282.50;1792.00;;;;;;5094054;28;19904;-65
2022/02/16 07:03:26;;;;;;;;;;;282.50;1792.00;;;;;;5094103;28;19912;-64
2022/02/16 07:05:52;;;;;;;;;;;282.50;1792.00;;;;;;5112498;28;19908;-62
2022/02/16 07:08:17;;;;;;;;;;;282.50;1817.60;;;;;;5114842;28;19903;-62
2022/02/16 07:10:44;;;;;;;;;;;282.50;1817.60;;;;;;5114578;28;19961;-62
2022/02/16 07:13:09;;;;;;;;;;;282.50;1792.00;;;;;;5114311;28;19947;-64
2022/02/16 07:15:36;;;;;;;;;;;282.50;1817.60;;;;;;5114305;28;20360;-63
2022/02/16 07:18:02;;;;;;;;;;;282.50;1817.60;;;;;;5106614;28;19911;-65
2022/02/16 07:20:28;;;;;;;;;;;282.40;1792.00;;;;;;5103564;28;19911;-63
2022/02/16 07:22:54;;;;;;;;;;;282.50;1817.60;;;;;;5102786;28;20242;-64
2022/02/16 07:25:20;;;;;;;;;;;282.50;1817.60;;;;;;5108457;28;20297;-63
2022/02/16 07:27:47;;;;;;;;;;;282.50;1817.60;;;;;;5114171;28;19904;-62
2022/02/16 07:30:16;;;;;;;;;;;282.40;1817.60;;;;;;5101716;28;19915;-66
2022/02/16 07:32:45;;;;;;;;;;;282.50;1817.60;;;;;;5093678;28;19923;-65
2022/02/16 07:35:14;;;;;;;;;;;282.50;1817.60;;;;;;5109625;28;19907;-60
2022/02/16 07:37:44;;;;;;;;;;;282.50;1817.60;;;;;;5114027;28;19911;-61
2022/02/16 07:40:12;;;;;;;;;;;282.50;1843.20;;;;;;5110373;28;19912;-59
2022/02/16 07:42:41;;;;;;;;;;;282.50;1843.20;;;;;;5104963;28;20392;-60
2022/02/16 07:45:09;;;;;;;;;;;282.50;1843.20;;;;;;5114004;28;19929;-60
2022/02/16 07:47:38;;;;;;;;;;;282.50;1843.20;;;;;;5114211;28;19935;-58
2022/02/16 07:50:07;;;;;;;;;;;282.50;1843.20;;;;;;5117983;28;20314;-58
2022/02/16 07:52:36;;;;;;;;;;;282.50;1868.80;;;;;;5117777;28;19951;-58
2022/02/16 07:55:04;;;;;;;;;;;307.20;1868.80;;;;;;5118004;28;19932;-60
2022/02/16 07:57:33;;;;;;;;;;;282.50;1843.20;;;;;;5118461;28;20265;-60
2022/02/16 08:00:02;;;;;;;;;;;307.20;1868.80;;;;;;5117937;28;19910;-60
2022/02/16 08:02:31;;;;;;;;;;;307.20;1868.80;;;;;;5118065;28;19927;-58
2022/02/16 08:04:59;;;;;;;;;;;307.20;1868.80;;;;;;5117852;28;19910;-60
2022/02/16 08:07:29;;;;;;;;;;;307.30;1868.80;;;;;;5118077;28;19910;-59
2022/02/16 08:09:54;;;;;;;;;;;307.30;1868.80;;;;;;5117798;28;19934;-60
2022/02/16 08:12:23;;;;;;;;;;;307.30;1894.40;;;;;;5117691;28;19915;-60
2022/02/16 08:14:52;;;;;;;;;;;307.30;1894.40;;;;;;5117549;28;19911;-61
2022/02/16 08:17:20;;;;;;;;;;;307.40;1894.40;;;;;;5117613;28;19904;-59
2022/02/16 08:19:50;;;;;;;;;;;307.40;1868.80;;;;;;5117538;28;19915;-60
2022/02/16 08:22:19;;;;;;;;;;;307.40;1894.40;;;;;;5117293;28;19910;-60
2022/02/16 08:24:47;;;;;;;;;;;307.40;1894.40;;;;;;5117466;28;19957;-59
2022/02/16 08:27:13;;;;;;;;;;;307.40;1894.40;;;;;;5117317;28;19904;-58
2022/02/16 08:29:41;;;;;;;;;;;307.50;1894.40;;;;;;5117503;28;19926;-58
2022/02/16 08:32:10;;;;;;;;;;;307.50;1894.40;;;;;;5117175;28;19915;-58
2022/02/16 08:34:35;;;;;;;;;;;307.60;1894.40;;;;;;5117164;28;20308;-58
2022/02/16 08:37:04;;;;;;;;;;;307.60;1894.40;;;;;;5118079;28;19903;-60
2022/02/16 08:39:32;;;;;;;;;;;307.60;1868.80;;;;;;5117102;28;19947;-58
2022/02/16 08:42:01;;;;;;;;;;;307.60;1868.80;;;;;;5117054;28;19910;-60
2022/02/16 08:44:30;;;;;;;;;;;307.60;1894.40;;;;;;5116784;28;19945;-58
2022/02/16 08:46:59;;;;;;;;;;;307.60;1868.80;;;;;;5117659;28;19903;-58
2022/02/16 08:49:27;;;;;;;;;;;307.60;1868.80;;;;;;5117083;28;20316;-60
2022/02/16 08:51:56;;;;;;;;;;;307.60;1894.40;;;;;;5116760;28;19990;-60
2022/02/16 08:54:24;;;;;;;;;;;307.70;1868.80;;;;;;5116781;28;20359;-58
2022/02/16 08:56:53;;;;;;;;;;;307.70;1868.80;;;;;;5116821;28;19911;-58
2022/02/16 08:59:18;;;;;;;;;;;307.80;1894.40;;;;;;5116759;28;19911;-60
2022/02/16 09:01:50;;;;;;;;;;;307.80;1868.80;;;;;;5116073;28;19903;-59
2022/02/16 09:04:18;;;;;;;;;;;307.80;1868.80;;;;;;5116777;28;19907;-57
2022/02/16 09:09:43;;;;;;;;;;;307.90;1868.80;;;;;;5117111;28;19927;-58
2022/02/16 09:12:11;;;;;;;;;;;307.90;1843.20;;;;;;5116631;28;19941;-58
2022/02/16 09:14:39;;;;;;;;;;;308.00;1868.80;;;;;;5117005;28;19979;-58
2022/02/16 09:17:08;;;;;;;;;;;308.00;1868.80;;;;;;5116724;28;20369;-58
2022/02/16 09:19:37;;;;;;;;;;;308.00;1894.40;;;;;;5116503;28;19908;-60
2022/02/16 09:22:03;;;;;;;;;;;308.10;1868.80;;;;;;5116694;28;19904;-60
2022/02/16 09:24:32;;;;;;;;;;;308.10;1868.80;;;;;;5115653;28;19903;-60
2022/02/16 09:27:00;;;;;;;;;;;332.80;1868.80;;;;;;5116095;28;19927;-58
2022/02/16 09:29:26;;;;;;;;;;;332.80;1868.80;;;;;;5116307;28;19904;-58
2022/02/16 09:31:54;;;;;;;;;;;332.80;1894.40;;;;;;5115806;28;19939;-58
2022/02/16 09:34:23;;;;;;;;;;;332.90;1868.80;;;;;;5115959;28;19926;-59
2022/02/16 09:36:49;;;;;;;;;;;333.00;1843.20;;;;;;5116004;28;19904;-58
2022/02/16 09:39:17;;;;;;;;;;;333.00;1843.20;;;;;;5115505;28;19991;-58
2022/02/16 09:41:47;;;;;;;;;;;333.10;1868.80;;;;;;5115865;28;20269;-58
2022/02/16 09:44:17;;;;;;;;;;;333.10;1843.20;;;;;;5115995;28;19903;-58
2022/02/16 09:46:45;;;;;;;;;;;333.20;1843.20;;;;;;5115846;28;19947;-58
2022/02/16 09:49:14;;;;;;;;;;;333.30;1817.60;;;;;;5115632;28;19965;-59
2022/02/16 09:51:42;;;;;;;;;;;333.30;1817.60;;;;;;5096986;28;19907;-60
2022/02/16 09:54:12;;;;;;;;;;;333.30;1817.60;;;;;;5115775;28;20023;-60
2022/02/16 09:56:41;;;;;;;;;;;333.40;1792.00;;;;;;5115401;28;19914;-58
2022/02/16 09:59:11;;;;;;;;;;;333.40;1792.00;;;;;;5115118;28;19926;-60
2022/02/16 10:02:02;;;;;;;;;;;333.50;1766.40;;;;;;5115603;28;19907;-58
2022/02/16 10:04:32;;;;;;;;;;;333.50;1740.80;;;;;;5111244;28;19990;-59
2022/02/16 10:07:01;;;;;;;;;;;333.50;1740.80;;;;;;5115460;28;19903;-57
2022/02/16 10:09:36;;;;;;;;;;;333.50;1740.80;;;;;;5115521;28;20273;-58
2022/02/16 10:12:05;;;;;;;;;;;333.50;1715.20;;;;;;5114415;28;19911;-59
2022/02/16 10:14:35;;;;;;;;;;;333.50;1740.80;;;;;;5114956;28;20406;-59
2022/02/16 10:17:17;;;;;;;;;;;333.50;1715.20;;;;;;5115227;28;19914;-60
2022/02/16 10:20:03;;;;;;;;;;;333.50;1715.20;;;;;;5115571;28;19954;-60
2022/02/16 10:22:45;;;;;;;;;;;333.50;1715.20;;;;;;5114972;28;20403;-59
2022/02/16 10:25:17;;;;;;;;;;;333.50;1715.20;;;;;;5115135;28;19926;-60
2022/02/16 10:28:04;;;;;;;;;;;333.60;1715.20;;;;;;5114928;28;20264;-58
2022/02/16 10:30:34;;;;;;;;;;;333.60;1715.20;;;;;;5115010;28;19904;-59
2022/02/16 10:33:26;;;;;;;;;;;333.60;1689.60;;;;;;5114709;28;19919;-60
2022/02/16 10:35:58;;;;;;;;;;;333.60;1689.60;;;;;;5110558;28;19903;-58
2022/02/16 10:38:26;;;;;;;;;;;333.60;1689.60;;;;;;5114942;28;20409;-58
2022/02/16 10:41:03;;;;;;;;;;;333.60;1689.60;;;;;;5115073;28;19903;-58
2022/02/16 10:43:39;;;;;;;;;;;333.60;1689.60;;;;;;5114873;28;20281;-58
2022/02/16 10:46:19;;;;;;;;;;;333.70;1689.60;;;;;;5114847;28;19904;-59
2022/02/16 10:48:47;;;;;;;;;;;358.40;1689.60;;;;;;5114790;28;19903;-60
2022/02/16 10:51:16;;;;;;;;;;;358.40;1689.60;;;;;;5114746;28;19904;-59
2022/02/16 10:53:47;;;;;;;;;;;358.50;1664.00;;;;;;5114645;28;19919;-58
2022/02/16 10:56:16;;;;;;;;;;;358.60;1638.40;;;;;;5114828;28;20357;-60
2022/02/16 10:58:44;;;;;;;;;;;358.60;1638.40;;;;;;5114542;28;19947;-59
2022/02/16 11:01:13;;;;;;;;;;;358.70;1612.80;;;;;;5114555;28;19904;-58
2022/02/16 11:03:46;;;;;;;;;;;358.80;1612.80;;;;;;5114648;28;19904;-60
2022/02/16 11:06:15;;;;;;;;;;;358.90;1612.80;;;;;;5114709;28;19903;-59
2022/02/16 11:08:43;;;;;;;;;;;358.90;1587.20;;;;;;5114497;28;19910;-60
2022/02/16 11:11:14;;;;;;;;;;;358.90;1587.20;;;;;;5114554;28;19984;-59
2022/02/16 11:13:46;;;;;;;;;;;359.00;1587.20;;;;;;5114549;28;20276;-60
2022/02/16 11:16:16;;;;;;;;;;;359.10;1561.60;;;;;;5114549;28;19908;-60
2022/02/16 11:18:51;;;;;;;;;;;359.10;1561.60;;;;;;5114514;28;19911;-61
2022/02/16 11:21:20;;;;;;;;;;;359.10;1561.60;;;;;;5114568;28;20376;-58
2022/02/16 11:23:50;;;;;;;;;;;359.20;1536.00;;;;;;5116028;28;19911;-58
2022/02/16 11:26:37;;;;;;;;;;;359.30;1536.00;;;;;;5118852;28;19904;-60
2022/02/16 11:29:08;;;;;;;;;;;359.30;1536.00;;;;;;5119333;28;19903;-60
2022/02/16 11:31:38;;;;;;;;;;;384.00;1510.40;;;;;;5118395;28;19908;-60
2022/02/16 11:34:14;;;;;;;;;;;384.00;1510.40;;;;;;5118686;28;19912;-60
2022/02/16 11:36:55;;;;;;;;;;;384.00;1484.80;;;;;;5118637;28;19911;-60
2022/02/16 11:39:40;;;;;;;;;;;384.10;1484.80;;;;;;5112097;28;20010;-60
2022/02/16 11:42:06;;;;;;;;;;;384.10;1459.20;;;;;;5107378;28;20049;-58
2022/02/16 11:44:50;;;;;;;;;;;384.00;1459.20;;;;;;5105519;28;20389;-59
2022/02/16 11:47:33;;;;;;;;;;;384.00;1484.80;;;;;;5104515;28;20019;-60
2022/02/16 11:50:20;;;;;;;;;;;384.10;1484.80;;;;;;5105532;28;19904;-60
2022/02/16 11:52:50;;;;;;;;;;;384.10;1459.20;;;;;;5014994;28;19913;-64
2022/02/16 11:55:38;;;;;;;;;;;384.20;1459.20;;;;;;5015610;28;20044;-60
2022/02/16 11:58:10;;;;;;;;;;;384.30;1433.60;;;;;;5015710;28;19906;-59
2022/02/16 12:00:57;;;;;;;;;;;384.30;1459.20;;;;;;5015215;28;20260;-59
2022/02/16 12:03:29;;;;;;;;;;;384.40;1459.20;;;;;;4998595;28;19948;-58
2022/02/16 12:06:01;;;;;;;;;;;384.50;1433.60;;;;;;5015307;28;19905;-59
2022/02/16 12:08:38;;;;;;;;;;;384.50;1408.00;;;;;;5015322;28;19951;-59
2022/02/16 12:11:09;;;;;;;;;;;384.60;1408.00;;;;;;5015006;28;20396;-60
2022/02/16 12:13:41;;;;;;;;;;;384.50;1408.00;;;;;;5015415;28;19920;-60
2022/02/16 12:16:19;;;;;;;;;;;384.50;1408.00;;;;;;5014989;28;19906;-61
2022/02/16 12:18:48;;;;;;;;;;;384.50;1408.00;;;;;;5015131;28;20281;-63
2022/02/16 12:21:32;;;;;;;;;;;384.60;1408.00;;;;;;5014970;28;19911;-60
2022/02/16 12:24:02;;;;;;;;;;;384.70;1433.60;;;;;;5015259;28;19928;-60
2022/02/16 12:26:44;;;;;;;;;;;384.70;1408.00;;;;;;5015041;28;19912;-60
2022/02/16 12:29:27;;;;;;;;;;;384.70;1408.00;;;;;;5032459;28;20354;-60
2022/02/16 12:31:58;;;;;;;;;;;384.70;1408.00;;;;;;5096733;28;19941;-60
2022/02/16 12:34:27;;;;;;;;;;;384.70;1408.00;;;;;;5096484;28;19916;-60
2022/02/16 12:36:59;;;;;;;;;;;384.70;1382.40;;;;;;5096222;28;19943;-60
2022/02/16 12:39:28;;;;;;;;;;;384.70;1408.00;;;;;;5097142;28;20339;-60
2022/02/16 12:42:03;;;;;;;;;;;384.70;1408.00;;;;;;5096770;28;19908;-60
2022/02/16 12:44:32;;;;;;;;;;;384.70;1382.40;;;;;;5096712;28;19991;-58
2022/02/16 12:46:59;;;;;;;;;;;384.70;1382.40;;;;;;5097199;28;19965;-60
2022/02/16 12:49:28;;;;;;;;;;;384.70;1382.40;;;;;;5096440;28;20342;-59
2022/02/16 12:51:58;;;;;;;;;;;384.70;1382.40;;;;;;5096678;28;19904;-60
2022/02/16 12:54:39;;;;;;;;;;;384.70;1382.40;;;;;;5096444;28;19958;-59
2022/02/16 12:57:08;;;;;;;;;;;384.80;1382.40;;;;;;5096557;28;20368;-60
2022/02/16 13:00:46;;;;;;;;;;;409.60;1382.40;;;;;;5096317;28;19904;-60
2022/02/16 13:02:32;;;;;;;;;;;409.60;1382.40;;;;;;5096346;28;19957;-61
2022/02/16 13:05:05;;;;;;;;;;;409.70;1382.40;;;;;;5096264;28;19908;-60
2022/02/16 13:07:34;;;;;;;;;;;409.70;1382.40;;;;;;5096333;28;19950;-59
2022/02/16 13:10:09;;;;;;;;;;;409.70;1382.40;;;;;;5096294;28;19904;-59
2022/02/16 13:12:43;;;;;;;;;;;409.80;1382.40;;;;;;5096031;28;20368;-59
2022/02/16 13:15:12;;;;;;;;;;;409.80;1382.40;;;;;;5096289;28;19949;-59
2022/02/16 13:17:48;;;;;;;;;;;409.90;1356.80;;;;;;5096055;28;20342;-59
2022/02/16 13:20:17;;;;;;;;;;;409.90;1356.80;;;;;;5095882;28;19911;-60
2022/02/16 13:22:53;;;;;;;;;;;409.90;1356.80;;;;;;5095892;28;20009;-58
2022/02/16 13:25:50;;;;;;;;;;;409.90;1331.20;;;;;;5095668;28;20358;-60
2022/02/16 13:28:33;;;;;;;;;;;410.00;1331.20;;;;;;4994205;28;19978;-61
2022/02/16 13:31:17;;;;;;;;;;;410.00;1331.20;;;;;;4994116;28;19918;-60
2022/02/16 13:33:56;;;;;;;;;;;410.00;1331.20;;;;;;4994107;28;20009;-59
2022/02/16 13:36:29;;;;;;;;;;;409.90;1331.20;;;;;;4994014;28;19906;-59
2022/02/16 13:39:27;;;;;;;;;;;409.80;1331.20;;;;;;4994097;28;19906;-60
2022/02/16 13:41:57;;;;;;;;;;;409.80;1331.20;;;;;;4936110;29;19913;-60
2022/02/16 13:44:41;;;;;;;;;;;409.70;1356.80;;;;;;4935902;29;19906;-60
2022/02/16 13:47:21;;;;;;;;;;;409.70;1331.20;;;;;;4936047;29;19910;-60
2022/02/16 13:49:59;;;;;;;;;;;409.70;1331.20;;;;;;4935832;29;20349;-60
2022/02/16 13:52:38;;;;;;;;;;;409.70;1356.80;;;;;;4935938;29;20351;-59
2022/02/16 13:55:06;;;;;;;;;;;409.80;1331.20;;;;;;4935846;29;19913;-60
2022/02/16 13:57:34;;;;;;;;;;;409.80;1356.80;;;;;;4935793;29;20430;-60
2022/02/16 14:00:15;;;;;;;;;;;409.80;1331.20;;;;;;4935848;29;19910;-60